sensor_id;sensor_type;location;lat;lon;timestamp;pressure;altitude;pressure_sealevel;temperature;humidity
19676;BME280;39539;52.202;9.876;2024-01-07T00:02:23;100968.63;;;-1.07;100.00
19676;BME280;39539;52.202;9.876;2024-01-07T00:04:49;100970.78;;;-1.12;100.00
19676;BME280;39539;52.202;9.876;2024-01-07T00:07:14;100960.63;;;-1.26;100.00
19676;BME280;39539;52.202;9.876;2024-01-07T00:09:39;100978.72;;;-1.14;100.00
19676;BME280;39539;52.202;9.876;2024-01-07T00:12:05;100974.53;;;-1.05;100.00
19676;BME280;39539;52.202;9.876;2024-01-07T00:14:31;100976.06;;;-1.02;100.00
19676;BME280;39539;52.202;9.876;2024-01-07T00:16:56;100980.22;;;-1.00;100.00
19676;BME280;39539;52.202;9.876;2024-01-07T00:19:21;100980.97;;;-1.09;100.00
19676;BME280;39539;52.202;9.876;2024-01-07T00:21:47;100994.22;;;-1.01;100.00
19676;BME280;39539;52.202;9.876;2024-01-07T00:24:13;100995.22;;;-1.13;100.00
19676;BME280;39539;52.202;9.876;2024-01-07T00:26:38;100972.59;;;-1.24;100.00
19676;BME280;39539;52.202;9.876;2024-01-07T00:29:03;100991.16;;;-1.06;100.00
19676;BME280;39539;52.202;9.876;2024-01-07T00:31:29;100999.44;;;-1.01;100.00
19676;BME280;39539;52.202;9.876;2024-01-07T00:33:54;100996.13;;;-1.03;100.00
19676;BME280;39539;52.202;9.876;2024-01-07T00:36:20;101007.03;;;-1.09;100.00
19676;BME280;39539;52.202;9.876;2024-01-07T00:38:45;101004.53;;;-1.10;100.00
19676;BME280;39539;52.202;9.876;2024-01-07T00:41:11;101009.19;;;-1.14;100.00
19676;BME280;39539;52.202;9.876;2024-01-07T00:43:36;101007.78;;;-1.18;100.00
19676;BME280;39539;52.202;9.876;2024-01-07T00:46:01;101012.38;;;-1.10;100.00
19676;BME280;39539;52.202;9.876;2024-01-07T00:48:27;101006.72;;;-1.16;100.00
19676;BME280;39539;52.202;9.876;2024-01-07T00:50:54;101022.00;;;-1.22;100.00
19676;BME280;39539;52.202;9.876;2024-01-07T00:53:20;101033.50;;;-1.25;100.00
19676;BME280;39539;52.202;9.876;2024-01-07T00:55:47;101024.06;;;-1.37;100.00
19676;BME280;39539;52.202;9.876;2024-01-07T00:58:12;101026.53;;;-1.24;100.00
19676;BME280;39539;52.202;9.876;2024-01-07T01:00:37;101047.72;;;-1.18;100.00
19676;BME280;39539;52.202;9.876;2024-01-07T01:03:03;101021.44;;;-1.37;100.00
19676;BME280;39539;52.202;9.876;2024-01-07T01:05:28;101037.22;;;-1.27;100.00
19676;BME280;39539;52.202;9.876;2024-01-07T01:07:54;101038.88;;;-1.38;100.00
19676;BME280;39539;52.202;9.876;2024-01-07T01:10:19;101049.63;;;-1.20;100.00
19676;BME280;39539;52.202;9.876;2024-01-07T01:12:45;101040.03;;;-1.30;100.00
19676;BME280;39539;52.202;9.876;2024-01-07T01:15:10;101043.81;;;-1.23;100.00
19676;BME280;39539;52.202;9.876;2024-01-07T01:17:36;101051.41;;;-1.20;100.00
19676;BME280;39539;52.202;9.876;2024-01-07T01:20:01;101056.53;;;-1.30;100.00
19676;BME280;39539;52.202;9.876;2024-01-07T01:22:28;101051.91;;;-1.26;100.00
19676;BME280;39539;52.202;9.876;2024-01-07T01:24:56;101058.16;;;-1.18;100.00
19676;BME280;39539;52.202;9.876;2024-01-07T01:27:22;101051.41;;;-1.31;100.00
19676;BME280;39539;52.202;9.876;2024-01-07T01:29:47;101066.72;;;-1.27;100.00
19676;BME280;39539;52.202;9.876;2024-01-07T01:32:12;101069.09;;;-1.35;100.00
19676;BME280;39539;52.202;9.876;2024-01-07T01:34:40;101071.31;;;-1.30;100.00
19676;BME280;39539;52.202;9.876;2024-01-07T01:37:07;101079.13;;;-1.30;100.00
19676;BME280;39539;52.202;9.876;2024-01-07T01:39:33;101076.19;;;-1.26;100.00
19676;BME280;39539;52.202;9.876;2024-01-07T01:41:59;101077.38;;;-1.30;100.00
19676;BME280;39539;52.202;9.876;2024-01-07T01:44:25;101095.25;;;-1.25;100.00
19676;BME280;39539;52.202;9.876;2024-01-07T01:46:53;101089.22;;;-1.37;100.00
19676;BME280;39539;52.202;9.876;2024-01-07T01:49:19;101083.78;;;-1.45;100.00
19676;BME280;39539;52.202;9.876;2024-01-07T01:51:44;101083.06;;;-1.47;100.00
19676;BME280;39539;52.202;9.876;2024-01-07T01:54:12;101095.97;;;-1.57;100.00
19676;BME280;39539;52.202;9.876;2024-01-07T01:56:38;101085.56;;;-1.46;100.00
19676;BME280;39539;52.202;9.876;2024-01-07T01:59:04;101102.16;;;-1.36;100.00
19676;BME280;39539;52.202;9.876;2024-01-07T02:01:30;101103.09;;;-1.48;100.00
19676;BME280;39539;52.202;9.876;2024-01-07T02:03:56;101106.75;;;-1.39;100.00
19676;BME280;39539;52.202;9.876;2024-01-07T02:06:22;101100.00;;;-1.42;100.00
19676;BME280;39539;52.202;9.876;2024-01-07T02:08:47;101115.44;;;-1.39;100.00
19676;BME280;39539;52.202;9.876;2024-01-07T02:11:21;101106.50;;;-1.47;100.00
19676;BME280;39539;52.202;9.876;2024-01-07T02:13:47;101100.13;;;-1.66;100.00
19676;BME280;39539;52.202;9.876;2024-01-07T02:16:15;101120.41;;;-1.58;100.00
19676;BME280;39539;52.202;9.876;2024-01-07T02:18:42;101117.31;;;-1.63;100.00
19676;BME280;39539;52.202;9.876;2024-01-07T02:21:13;101115.41;;;-1.61;100.00
19676;BME280;39539;52.202;9.876;2024-01-07T02:23:38;101118.25;;;-1.64;100.00
19676;BME280;39539;52.202;9.876;2024-01-07T02:26:04;101115.75;;;-1.77;100.00
19676;BME280;39539;52.202;9.876;2024-01-07T02:28:30;101115.41;;;-1.72;100.00
19676;BME280;39539;52.202;9.876;2024-01-07T02:30:55;101126.50;;;-1.70;100.00
19676;BME280;39539;52.202;9.876;2024-01-07T02:33:21;101122.16;;;-1.70;100.00
19676;BME280;39539;52.202;9.876;2024-01-07T02:35:46;101122.75;;;-1.66;100.00
19676;BME280;39539;52.202;9.876;2024-01-07T02:38:11;101128.69;;;-1.64;100.00
19676;BME280;39539;52.202;9.876;2024-01-07T02:40:37;101135.66;;;-1.65;100.00
19676;BME280;39539;52.202;9.876;2024-01-07T02:43:02;101137.78;;;-1.59;100.00
19676;BME280;39539;52.202;9.876;2024-01-07T02:45:27;101129.13;;;-1.70;100.00
19676;BME280;39539;52.202;9.876;2024-01-07T02:47:53;101131.38;;;-1.77;100.00
19676;BME280;39539;52.202;9.876;2024-01-07T02:50:18;101140.50;;;-1.71;100.00
19676;BME280;39539;52.202;9.876;2024-01-07T02:52:44;101140.81;;;-1.87;100.00
19676;BME280;39539;52.202;9.876;2024-01-07T02:55:09;101136.34;;;-1.74;100.00
19676;BME280;39539;52.202;9.876;2024-01-07T02:57:34;101130.78;;;-1.81;100.00
19676;BME280;39539;52.202;9.876;2024-01-07T03:00:00;101148.56;;;-1.74;100.00
19676;BME280;39539;52.202;9.876;2024-01-07T03:02:25;101149.59;;;-1.77;100.00
19676;BME280;39539;52.202;9.876;2024-01-07T03:04:51;101147.13;;;-1.67;100.00
19676;BME280;39539;52.202;9.876;2024-01-07T03:07:16;101149.97;;;-1.70;100.00
19676;BME280;39539;52.202;9.876;2024-01-07T03:09:41;101161.66;;;-1.87;100.00
19676;BME280;39539;52.202;9.876;2024-01-07T03:12:08;101169.97;;;-1.82;100.00
19676;BME280;39539;52.202;9.876;2024-01-07T03:14:33;101167.75;;;-1.75;100.00
19676;BME280;39539;52.202;9.876;2024-01-07T03:16:58;101173.53;;;-1.83;100.00
19676;BME280;39539;52.202;9.876;2024-01-07T03:19:24;101166.94;;;-2.00;100.00
19676;BME280;39539;52.202;9.876;2024-01-07T03:21:50;101165.81;;;-1.85;100.00
19676;BME280;39539;52.202;9.876;2024-01-07T03:24:15;101169.78;;;-2.03;100.00
19676;BME280;39539;52.202;9.876;2024-01-07T03:26:41;101178.53;;;-2.04;100.00
19676;BME280;39539;52.202;9.876;2024-01-07T03:29:06;101168.69;;;-2.12;100.00
19676;BME280;39539;52.202;9.876;2024-01-07T03:31:32;101185.44;;;-1.92;100.00
19676;BME280;39539;52.202;9.876;2024-01-07T03:33:57;101182.94;;;-1.93;100.00
19676;BME280;39539;52.202;9.876;2024-01-07T03:36:22;101166.34;;;-2.04;100.00
19676;BME280;39539;52.202;9.876;2024-01-07T03:38:48;101192.91;;;-1.87;100.00
19676;BME280;39539;52.202;9.876;2024-01-07T03:41:17;101195.41;;;-1.86;100.00
19676;BME280;39539;52.202;9.876;2024-01-07T03:43:44;101184.50;;;-1.91;100.00
19676;BME280;39539;52.202;9.876;2024-01-07T03:46:09;101187.75;;;-2.11;100.00
19676;BME280;39539;52.202;9.876;2024-01-07T03:48:34;101198.72;;;-1.95;100.00
19676;BME280;39539;52.202;9.876;2024-01-07T03:51:00;101192.53;;;-1.94;100.00
19676;BME280;39539;52.202;9.876;2024-01-07T03:53:25;101195.59;;;-2.00;100.00
19676;BME280;39539;52.202;9.876;2024-01-07T03:55:50;101194.88;;;-2.02;100.00
19676;BME280;39539;52.202;9.876;2024-01-07T03:58:16;101193.91;;;-2.01;100.00
19676;BME280;39539;52.202;9.876;2024-01-07T04:00:41;101211.97;;;-1.98;100.00
19676;BME280;39539;52.202;9.876;2024-01-07T04:03:07;101203.50;;;-2.01;100.00
19676;BME280;39539;52.202;9.876;2024-01-07T04:05:32;101211.63;;;-2.17;100.00
19676;BME280;39539;52.202;9.876;2024-01-07T04:08:02;101214.50;;;-2.09;100.00
19676;BME280;39539;52.202;9.876;2024-01-07T04:10:27;101213.56;;;-2.08;100.00
19676;BME280;39539;52.202;9.876;2024-01-07T04:12:53;101230.97;;;-2.09;100.00
19676;BME280;39539;52.202;9.876;2024-01-07T04:15:18;101220.19;;;-2.04;100.00
19676;BME280;39539;52.202;9.876;2024-01-07T04:17:43;101234.94;;;-2.16;100.00
19676;BME280;39539;52.202;9.876;2024-01-07T04:20:12;101242.19;;;-2.08;100.00
19676;BME280;39539;52.202;9.876;2024-01-07T04:22:38;101235.34;;;-2.09;100.00
19676;BME280;39539;52.202;9.876;2024-01-07T04:25:03;101229.78;;;-2.29;100.00
19676;BME280;39539;52.202;9.876;2024-01-07T04:27:30;101234.63;;;-2.11;100.00
19676;BME280;39539;52.202;9.876;2024-01-07T04:29:55;101243.56;;;-2.15;100.00
19676;BME280;39539;52.202;9.876;2024-01-07T04:32:20;101248.78;;;-2.15;100.00
19676;BME280;39539;52.202;9.876;2024-01-07T04:34:46;101242.88;;;-2.17;100.00
19676;BME280;39539;52.202;9.876;2024-01-07T04:37:11;101250.84;;;-2.08;100.00
19676;BME280;39539;52.202;9.876;2024-01-07T04:39:37;101253.44;;;-2.08;100.00
19676;BME280;39539;52.202;9.876;2024-01-07T04:42:02;101250.97;;;-2.09;100.00
19676;BME280;39539;52.202;9.876;2024-01-07T04:44:27;101234.78;;;-2.26;100.00
19676;BME280;39539;52.202;9.876;2024-01-07T04:46:53;101251.59;;;-2.18;100.00
19676;BME280;39539;52.202;9.876;2024-01-07T04:49:18;101261.38;;;-2.09;100.00
19676;BME280;39539;52.202;9.876;2024-01-07T04:51:43;101264.53;;;-2.17;100.00
19676;BME280;39539;52.202;9.876;2024-01-07T04:54:09;101265.34;;;-2.16;100.00
19676;BME280;39539;52.202;9.876;2024-01-07T04:56:34;101265.72;;;-2.10;100.00
19676;BME280;39539;52.202;9.876;2024-01-07T04:59:00;101276.06;;;-2.08;100.00
19676;BME280;39539;52.202;9.876;2024-01-07T05:01:25;101278.88;;;-2.11;100.00
19676;BME280;39539;52.202;9.876;2024-01-07T05:03:51;101288.03;;;-2.06;100.00
19676;BME280;39539;52.202;9.876;2024-01-07T05:06:16;101285.75;;;-2.10;100.00
19676;BME280;39539;52.202;9.876;2024-01-07T05:08:42;101281.03;;;-2.05;100.00
19676;BME280;39539;52.202;9.876;2024-01-07T05:11:08;101262.03;;;-2.18;100.00
19676;BME280;39539;52.202;9.876;2024-01-07T05:13:35;101278.44;;;-2.05;100.00
19676;BME280;39539;52.202;9.876;2024-01-07T05:16:00;101268.75;;;-2.03;100.00
19676;BME280;39539;52.202;9.876;2024-01-07T05:18:26;101280.22;;;-2.06;100.00
19676;BME280;39539;52.202;9.876;2024-01-07T05:20:51;101289.19;;;-2.10;100.00
19676;BME280;39539;52.202;9.876;2024-01-07T05:23:18;101286.69;;;-2.11;100.00
19676;BME280;39539;52.202;9.876;2024-01-07T05:25:44;101287.69;;;-2.01;100.00
19676;BME280;39539;52.202;9.876;2024-01-07T05:28:11;101306.34;;;-2.07;100.00
19676;BME280;39539;52.202;9.876;2024-01-07T05:30:38;101291.47;;;-2.05;100.00
19676;BME280;39539;52.202;9.876;2024-01-07T05:33:04;101299.78;;;-2.00;100.00
19676;BME280;39539;52.202;9.876;2024-01-07T05:35:29;101324.88;;;-1.99;100.00
19676;BME280;39539;52.202;9.876;2024-01-07T05:37:55;101301.38;;;-2.10;100.00
19676;BME280;39539;52.202;9.876;2024-01-07T05:40:21;101311.41;;;-2.17;100.00
19676;BME280;39539;52.202;9.876;2024-01-07T05:42:46;101299.88;;;-2.26;100.00
19676;BME280;39539;52.202;9.876;2024-01-07T05:45:12;101291.84;;;-2.22;100.00
19676;BME280;39539;52.202;9.876;2024-01-07T05:47:37;101317.25;;;-2.26;100.00
19676;BME280;39539;52.202;9.876;2024-01-07T05:50:03;101318.16;;;-2.14;100.00
19676;BME280;39539;52.202;9.876;2024-01-07T05:52:28;101326.19;;;-2.17;100.00
19676;BME280;39539;52.202;9.876;2024-01-07T05:54:53;101351.72;;;-2.22;100.00
19676;BME280;39539;52.202;9.876;2024-01-07T05:57:19;101330.22;;;-2.13;100.00
19676;BME280;39539;52.202;9.876;2024-01-07T05:59:44;101314.50;;;-2.12;100.00
19676;BME280;39539;52.202;9.876;2024-01-07T06:02:10;101328.06;;;-2.19;100.00
19676;BME280;39539;52.202;9.876;2024-01-07T06:04:37;101353.44;;;-2.10;100.00
19676;BME280;39539;52.202;9.876;2024-01-07T06:07:03;101346.22;;;-2.31;100.00
19676;BME280;39539;52.202;9.876;2024-01-07T06:09:28;101336.00;;;-2.34;100.00
19676;BME280;39539;52.202;9.876;2024-01-07T06:11:54;101338.63;;;-2.34;100.00
19676;BME280;39539;52.202;9.876;2024-01-07T06:14:21;101349.13;;;-2.22;100.00
19676;BME280;39539;52.202;9.876;2024-01-07T06:16:46;101352.16;;;-2.29;100.00
19676;BME280;39539;52.202;9.876;2024-01-07T06:19:11;101358.06;;;-2.27;100.00
19676;BME280;39539;52.202;9.876;2024-01-07T06:21:37;101350.16;;;-2.38;100.00
19676;BME280;39539;52.202;9.876;2024-01-07T06:24:02;101362.69;;;-2.43;100.00
19676;BME280;39539;52.202;9.876;2024-01-07T06:26:28;101377.34;;;-2.42;100.00
19676;BME280;39539;52.202;9.876;2024-01-07T06:28:53;101375.38;;;-2.51;100.00
19676;BME280;39539;52.202;9.876;2024-01-07T06:31:19;101373.91;;;-2.55;100.00
19676;BME280;39539;52.202;9.876;2024-01-07T06:33:44;101381.22;;;-2.60;100.00
19676;BME280;39539;52.202;9.876;2024-01-07T06:36:09;101383.41;;;-2.54;100.00
19676;BME280;39539;52.202;9.876;2024-01-07T06:38:34;101386.22;;;-2.57;100.00
19676;BME280;39539;52.202;9.876;2024-01-07T06:41:00;101391.91;;;-2.52;100.00
19676;BME280;39539;52.202;9.876;2024-01-07T06:43:29;101410.34;;;-2.55;100.00
19676;BME280;39539;52.202;9.876;2024-01-07T06:45:55;101409.09;;;-2.62;100.00
19676;BME280;39539;52.202;9.876;2024-01-07T06:48:20;101401.19;;;-2.61;100.00
19676;BME280;39539;52.202;9.876;2024-01-07T06:50:46;101412.94;;;-2.68;100.00
19676;BME280;39539;52.202;9.876;2024-01-07T06:53:11;101404.41;;;-2.70;100.00
19676;BME280;39539;52.202;9.876;2024-01-07T06:55:36;101408.03;;;-2.73;100.00
19676;BME280;39539;52.202;9.876;2024-01-07T06:58:02;101415.31;;;-2.78;100.00
19676;BME280;39539;52.202;9.876;2024-01-07T07:00:27;101428.53;;;-2.81;100.00
19676;BME280;39539;52.202;9.876;2024-01-07T07:02:52;101435.84;;;-2.73;100.00
19676;BME280;39539;52.202;9.876;2024-01-07T07:05:18;101436.56;;;-2.71;100.00
19676;BME280;39539;52.202;9.876;2024-01-07T07:07:43;101445.28;;;-2.72;100.00
19676;BME280;39539;52.202;9.876;2024-01-07T07:10:08;101424.81;;;-2.77;100.00
19676;BME280;39539;52.202;9.876;2024-01-07T07:12:34;101450.13;;;-2.66;100.00
19676;BME280;39539;52.202;9.876;2024-01-07T07:14:59;101442.19;;;-2.64;100.00
19676;BME280;39539;52.202;9.876;2024-01-07T07:17:24;101453.97;;;-2.59;100.00
19676;BME280;39539;52.202;9.876;2024-01-07T07:19:50;101448.66;;;-2.57;100.00
19676;BME280;39539;52.202;9.876;2024-01-07T07:22:15;101440.41;;;-2.64;100.00
19676;BME280;39539;52.202;9.876;2024-01-07T07:24:41;101468.00;;;-2.61;100.00
19676;BME280;39539;52.202;9.876;2024-01-07T07:27:07;101470.94;;;-2.66;100.00
19676;BME280;39539;52.202;9.876;2024-01-07T07:29:32;101469.38;;;-2.68;100.00
19676;BME280;39539;52.202;9.876;2024-01-07T07:31:58;101452.34;;;-2.87;100.00
19676;BME280;39539;52.202;9.876;2024-01-07T07:34:23;101479.09;;;-2.85;100.00
19676;BME280;39539;52.202;9.876;2024-01-07T07:36:49;101480.47;;;-2.79;100.00
19676;BME280;39539;52.202;9.876;2024-01-07T07:39:14;101485.19;;;-2.72;100.00
19676;BME280;39539;52.202;9.876;2024-01-07T07:41:40;101478.75;;;-2.66;98.83
19676;BME280;39539;52.202;9.876;2024-01-07T07:44:05;101478.00;;;-2.68;100.00
19676;BME280;39539;52.202;9.876;2024-01-07T07:46:30;101478.81;;;-2.67;99.36
19676;BME280;39539;52.202;9.876;2024-01-07T07:48:56;101473.81;;;-2.71;100.00
19676;BME280;39539;52.202;9.876;2024-01-07T07:51:21;101494.66;;;-2.58;100.00
19676;BME280;39539;52.202;9.876;2024-01-07T07:53:46;101493.94;;;-2.60;100.00
19676;BME280;39539;52.202;9.876;2024-01-07T07:56:12;101499.78;;;-2.56;100.00
19676;BME280;39539;52.202;9.876;2024-01-07T07:58:37;101506.91;;;-2.73;100.00
19676;BME280;39539;52.202;9.876;2024-01-07T08:01:04;101508.00;;;-2.62;100.00
19676;BME280;39539;52.202;9.876;2024-01-07T08:03:29;101497.38;;;-2.59;100.00
19676;BME280;39539;52.202;9.876;2024-01-07T08:05:55;101500.19;;;-2.62;100.00
19676;BME280;39539;52.202;9.876;2024-01-07T08:08:21;101519.78;;;-2.44;100.00
19676;BME280;39539;52.202;9.876;2024-01-07T08:10:46;101529.28;;;-2.43;100.00
19676;BME280;39539;52.202;9.876;2024-01-07T08:13:11;101511.34;;;-2.60;100.00
19676;BME280;39539;52.202;9.876;2024-01-07T08:15:40;101537.38;;;-2.47;100.00
19676;BME280;39539;52.202;9.876;2024-01-07T08:18:05;101520.59;;;-2.56;100.00
19676;BME280;39539;52.202;9.876;2024-01-07T08:20:31;101540.38;;;-2.54;100.00
19676;BME280;39539;52.202;9.876;2024-01-07T08:22:56;101527.13;;;-2.63;100.00
19676;BME280;39539;52.202;9.876;2024-01-07T08:25:21;101543.81;;;-2.53;100.00
19676;BME280;39539;52.202;9.876;2024-01-07T08:27:48;101524.34;;;-2.60;100.00
19676;BME280;39539;52.202;9.876;2024-01-07T08:30:14;101549.84;;;-2.53;100.00
19676;BME280;39539;52.202;9.876;2024-01-07T08:32:40;101550.66;;;-2.52;100.00
19676;BME280;39539;52.202;9.876;2024-01-07T08:35:06;101559.41;;;-2.53;100.00
19676;BME280;39539;52.202;9.876;2024-01-07T08:37:31;101560.78;;;-2.47;100.00
19676;BME280;39539;52.202;9.876;2024-01-07T08:39:57;101552.25;;;-2.50;100.00
19676;BME280;39539;52.202;9.876;2024-01-07T08:42:22;101549.75;;;-2.51;100.00
19676;BME280;39539;52.202;9.876;2024-01-07T08:44:48;101561.34;;;-2.42;100.00
19676;BME280;39539;52.202;9.876;2024-01-07T08:47:15;101567.41;;;-2.29;100.00
19676;BME280;39539;52.202;9.876;2024-01-07T08:49:40;101572.56;;;-2.42;100.00
19676;BME280;39539;52.202;9.876;2024-01-07T08:52:05;101574.78;;;-2.36;100.00
19676;BME280;39539;52.202;9.876;2024-01-07T08:54:31;101578.72;;;-2.43;100.00
19676;BME280;39539;52.202;9.876;2024-01-07T08:56:58;101568.53;;;-2.46;100.00
19676;BME280;39539;52.202;9.876;2024-01-07T08:59:23;101569.22;;;-2.44;100.00
19676;BME280;39539;52.202;9.876;2024-01-07T09:01:49;101585.31;;;-2.24;100.00
19676;BME280;39539;52.202;9.876;2024-01-07T09:04:14;101574.97;;;-2.39;100.00
19676;BME280;39539;52.202;9.876;2024-01-07T09:06:41;101581.31;;;-2.43;100.00
19676;BME280;39539;52.202;9.876;2024-01-07T09:09:06;101586.53;;;-2.43;100.00
19676;BME280;39539;52.202;9.876;2024-01-07T09:11:33;101578.41;;;-2.38;100.00
19676;BME280;39539;52.202;9.876;2024-01-07T09:13:59;101593.53;;;-2.31;100.00
19676;BME280;39539;52.202;9.876;2024-01-07T09:16:25;101600.47;;;-2.44;100.00
19676;BME280;39539;52.202;9.876;2024-01-07T09:18:50;101598.75;;;-2.31;100.00
19676;BME280;39539;52.202;9.876;2024-01-07T09:21:16;101594.34;;;-2.43;100.00
19676;BME280;39539;52.202;9.876;2024-01-07T09:23:41;101605.47;;;-2.41;100.00
19676;BME280;39539;52.202;9.876;2024-01-07T09:26:07;101587.78;;;-2.36;100.00
19676;BME280;39539;52.202;9.876;2024-01-07T09:28:32;101598.41;;;-2.39;100.00
19676;BME280;39539;52.202;9.876;2024-01-07T09:30:58;101595.25;;;-2.44;100.00
19676;BME280;39539;52.202;9.876;2024-01-07T09:33:23;101617.94;;;-2.19;100.00
19676;BME280;39539;52.202;9.876;2024-01-07T09:35:52;101608.22;;;-2.30;100.00
19676;BME280;39539;52.202;9.876;2024-01-07T09:38:19;101629.25;;;-2.33;100.00
19676;BME280;39539;52.202;9.876;2024-01-07T09:40:45;101623.13;;;-2.32;100.00
19676;BME280;39539;52.202;9.876;2024-01-07T09:43:10;101619.22;;;-2.39;100.00
19676;BME280;39539;52.202;9.876;2024-01-07T09:45:38;101627.97;;;-2.40;100.00
19676;BME280;39539;52.202;9.876;2024-01-07T09:48:05;101625.72;;;-2.32;100.00
19676;BME280;39539;52.202;9.876;2024-01-07T09:50:31;101623.00;;;-2.30;100.00
19676;BME280;39539;52.202;9.876;2024-01-07T09:52:56;101629.50;;;-2.10;100.00
19676;BME280;39539;52.202;9.876;2024-01-07T09:55:33;101633.31;;;-1.89;100.00
19676;BME280;39539;52.202;9.876;2024-01-07T09:58:03;101628.50;;;-1.95;100.00
19676;BME280;39539;52.202;9.876;2024-01-07T10:00:29;101638.31;;;-1.86;100.00
19676;BME280;39539;52.202;9.876;2024-01-07T10:02:55;101632.91;;;-1.83;100.00
19676;BME280;39539;52.202;9.876;2024-01-07T10:05:21;101629.97;;;-1.91;100.00
19676;BME280;39539;52.202;9.876;2024-01-07T10:07:46;101636.00;;;-1.90;100.00
19676;BME280;39539;52.202;9.876;2024-01-07T10:10:13;101638.47;;;-2.14;100.00
19676;BME280;39539;52.202;9.876;2024-01-07T10:12:39;101636.41;;;-2.09;100.00
19676;BME280;39539;52.202;9.876;2024-01-07T10:15:06;101630.16;;;-2.07;100.00
19676;BME280;39539;52.202;9.876;2024-01-07T10:17:35;101643.06;;;-2.05;100.00
19676;BME280;39539;52.202;9.876;2024-01-07T10:20:00;101609.81;;;-2.14;100.00
19676;BME280;39539;52.202;9.876;2024-01-07T10:22:26;101623.31;;;-1.95;100.00
19676;BME280;39539;52.202;9.876;2024-01-07T10:24:52;101633.53;;;-1.79;100.00
19676;BME280;39539;52.202;9.876;2024-01-07T10:27:18;101633.44;;;-1.77;100.00
19676;BME280;39539;52.202;9.876;2024-01-07T10:29:46;101621.63;;;-1.96;100.00
19676;BME280;39539;52.202;9.876;2024-01-07T10:32:19;101626.84;;;-1.83;100.00
19676;BME280;39539;52.202;9.876;2024-01-07T10:34:48;101634.16;;;-1.75;100.00
19676;BME280;39539;52.202;9.876;2024-01-07T10:37:14;101636.00;;;-1.90;100.00
19676;BME280;39539;52.202;9.876;2024-01-07T10:39:40;101625.91;;;-1.82;100.00
19676;BME280;39539;52.202;9.876;2024-01-07T10:42:06;101635.28;;;-1.79;100.00
19676;BME280;39539;52.202;9.876;2024-01-07T10:44:32;101624.53;;;-1.88;100.00
19676;BME280;39539;52.202;9.876;2024-01-07T10:47:05;101635.63;;;-1.71;100.00
19676;BME280;39539;52.202;9.876;2024-01-07T10:49:32;101642.81;;;-1.62;100.00
19676;BME280;39539;52.202;9.876;2024-01-07T10:52:04;101643.03;;;-1.65;100.00
19676;BME280;39539;52.202;9.876;2024-01-07T10:54:31;101648.34;;;-1.67;100.00
19676;BME280;39539;52.202;9.876;2024-01-07T10:57:00;101640.19;;;-1.88;100.00
19676;BME280;39539;52.202;9.876;2024-01-07T10:59:36;101648.31;;;-1.79;100.00
19676;BME280;39539;52.202;9.876;2024-01-07T11:02:03;101634.44;;;-2.06;100.00
19676;BME280;39539;52.202;9.876;2024-01-07T11:07:29;101638.19;;;-1.84;100.00
19676;BME280;39539;52.202;9.876;2024-01-07T11:10:10;101641.44;;;-1.68;100.00
19676;BME280;39539;52.202;9.876;2024-01-07T11:12:37;101643.56;;;-1.60;100.00
19676;BME280;39539;52.202;9.876;2024-01-07T11:15:03;101618.22;;;-1.84;100.00
19676;BME280;39539;52.202;9.876;2024-01-07T11:20:02;101651.78;;;-1.66;100.00
19676;BME280;39539;52.202;9.876;2024-01-07T11:22:28;101634.66;;;-1.70;100.00
19676;BME280;39539;52.202;9.876;2024-01-07T11:24:54;101640.44;;;-1.52;100.00
19676;BME280;39539;52.202;9.876;2024-01-07T11:27:22;101632.69;;;-1.54;100.00
19676;BME280;39539;52.202;9.876;2024-01-07T11:30:01;101641.56;;;-1.69;100.00
19676;BME280;39539;52.202;9.876;2024-01-07T11:32:30;101645.22;;;-1.59;100.00
19676;BME280;39539;52.202;9.876;2024-01-07T11:34:56;101637.09;;;-1.54;100.00
19676;BME280;39539;52.202;9.876;2024-01-07T11:37:24;101630.41;;;-1.46;100.00
19676;BME280;39539;52.202;9.876;2024-01-07T11:39:53;101640.53;;;-1.41;100.00
19676;BME280;39539;52.202;9.876;2024-01-07T11:42:20;101624.47;;;-1.48;100.00
19676;BME280;39539;52.202;9.876;2024-01-07T11:44:52;101632.38;;;-1.37;100.00
19676;BME280;39539;52.202;9.876;2024-01-07T11:47:19;101633.13;;;-1.34;100.00
19676;BME280;39539;52.202;9.876;2024-01-07T11:49:45;101644.50;;;-1.36;100.00
19676;BME280;39539;52.202;9.876;2024-01-07T11:52:11;101636.88;;;-1.39;100.00
19676;BME280;39539;52.202;9.876;2024-01-07T11:54:38;101632.28;;;-1.35;100.00
19676;BME280;39539;52.202;9.876;2024-01-07T11:57:05;101629.88;;;-1.25;100.00
19676;BME280;39539;52.202;9.876;2024-01-07T11:59:31;101635.59;;;-1.20;100.00
19676;BME280;39539;52.202;9.876;2024-01-07T12:01:56;101623.13;;;-1.41;100.00
19676;BME280;39539;52.202;9.876;2024-01-07T12:04:22;101635.09;;;-1.25;100.00
19676;BME280;39539;52.202;9.876;2024-01-07T12:06:48;101625.28;;;-1.22;100.00
19676;BME280;39539;52.202;9.876;2024-01-07T12:09:13;101616.19;;;-1.16;100.00
19676;BME280;39539;52.202;9.876;2024-01-07T12:11:40;101636.81;;;-1.00;100.00
19676;BME280;39539;52.202;9.876;2024-01-07T12:14:09;101618.38;;;-1.10;100.00
19676;BME280;39539;52.202;9.876;2024-01-07T12:16:36;101632.34;;;-0.74;100.00
19676;BME280;39539;52.202;9.876;2024-01-07T12:19:02;101634.91;;;-0.85;100.00
19676;BME280;39539;52.202;9.876;2024-01-07T12:21:28;101640.38;;;-1.01;100.00
19676;BME280;39539;52.202;9.876;2024-01-07T12:23:55;101642.16;;;-1.02;100.00
19676;BME280;39539;52.202;9.876;2024-01-07T12:26:26;101635.78;;;-0.98;100.00
19676;BME280;39539;52.202;9.876;2024-01-07T12:28:53;101626.09;;;-1.08;100.00
19676;BME280;39539;52.202;9.876;2024-01-07T12:31:23;101629.53;;;-1.08;100.00
19676;BME280;39539;52.202;9.876;2024-01-07T12:33:49;101637.88;;;-1.03;100.00
19676;BME280;39539;52.202;9.876;2024-01-07T12:36:14;101626.22;;;-1.10;100.00
19676;BME280;39539;52.202;9.876;2024-01-07T12:38:40;101643.50;;;-0.96;100.00
19676;BME280;39539;52.202;9.876;2024-01-07T12:41:08;101612.13;;;-1.07;100.00